sensor_id;sensor_type;location;lat;lon;timestamp;temperature;humidity
20366;DHT22;10341;49.894;8.822;2023-01-29T00:00:05;0.20;99.90
20366;DHT22;10341;49.894;8.822;2023-01-29T00:05:34;0.20;99.90
20366;DHT22;10341;49.894;8.822;2023-01-29T00:10:59;0.20;99.90
20366;DHT22;10341;49.894;8.822;2023-01-29T00:16:19;0.20;99.90
20366;DHT22;10341;49.894;8.822;2023-01-29T00:21:38;0.20;99.90
20366;DHT22;10341;49.894;8.822;2023-01-29T00:26:58;0.30;99.90
20366;DHT22;10341;49.894;8.822;2023-01-29T00:32:18;0.20;99.90
20366;DHT22;10341;49.894;8.822;2023-01-29T00:37:38;0.20;99.90
20366;DHT22;10341;49.894;8.822;2023-01-29T00:42:57;0.20;99.90
20366;DHT22;10341;49.894;8.822;2023-01-29T00:48:36;0.20;99.90
20366;DHT22;10341;49.894;8.822;2023-01-29T00:53:56;0.30;99.90
20366;DHT22;10341;49.894;8.822;2023-01-29T00:59:16;0.30;99.90
20366;DHT22;10341;49.894;8.822;2023-01-29T01:04:36;0.30;99.90
20366;DHT22;10341;49.894;8.822;2023-01-29T01:09:55;0.30;99.90
20366;DHT22;10341;49.894;8.822;2023-01-29T01:15:36;0.30;99.90
20366;DHT22;10341;49.894;8.822;2023-01-29T01:20:57;0.30;99.90
20366;DHT22;10341;49.894;8.822;2023-01-29T01:26:18;0.30;99.90
20366;DHT22;10341;49.894;8.822;2023-01-29T01:31:37;0.30;99.90
20366;DHT22;10341;49.894;8.822;2023-01-29T01:36:56;0.30;99.90
20366;DHT22;10341;49.894;8.822;2023-01-29T01:42:16;0.30;99.90
20366;DHT22;10341;49.894;8.822;2023-01-29T01:47:40;0.30;99.90
20366;DHT22;10341;49.894;8.822;2023-01-29T01:53:05;0.30;99.90
20366;DHT22;10341;49.894;8.822;2023-01-29T01:58:31;0.30;99.90
20366;DHT22;10341;49.894;8.822;2023-01-29T02:03:55;0.30;99.90
20366;DHT22;10341;49.894;8.822;2023-01-29T02:09:39;0.40;99.90
20366;DHT22;10341;49.894;8.822;2023-01-29T02:14:59;0.30;99.90
20366;DHT22;10341;49.894;8.822;2023-01-29T02:20:25;0.30;99.90
20366;DHT22;10341;49.894;8.822;2023-01-29T02:25:58;0.20;99.90
20366;DHT22;10341;49.894;8.822;2023-01-29T02:31:40;0.30;99.90
20366;DHT22;10341;49.894;8.822;2023-01-29T02:37:08;0.20;99.90
20366;DHT22;10341;49.894;8.822;2023-01-29T02:42:34;0.20;99.90
20366;DHT22;10341;49.894;8.822;2023-01-29T02:48:00;0.20;99.90
20366;DHT22;10341;49.894;8.822;2023-01-29T02:59:43;0.20;99.90
20366;DHT22;10341;49.894;8.822;2023-01-29T03:05:09;0.20;99.90
20366;DHT22;10341;49.894;8.822;2023-01-29T03:10:38;0.20;99.90
20366;DHT22;10341;49.894;8.822;2023-01-29T03:16:03;0.20;99.90
20366;DHT22;10341;49.894;8.822;2023-01-29T03:21:38;0.30;99.90
20366;DHT22;10341;49.894;8.822;2023-01-29T03:27:19;0.20;99.90
20366;DHT22;10341;49.894;8.822;2023-01-29T03:33:01;0.20;99.90
20366;DHT22;10341;49.894;8.822;2023-01-29T03:38:24;0.20;99.90
20366;DHT22;10341;49.894;8.822;2023-01-29T03:55:16;0.20;99.90
20366;DHT22;10341;49.894;8.822;2023-01-29T04:00:36;0.10;99.90
20366;DHT22;10341;49.894;8.822;2023-01-29T04:06:15;0.10;99.90
20366;DHT22;10341;49.894;8.822;2023-01-29T04:12:00;0.00;99.90
20366;DHT22;10341;49.894;8.822;2023-01-29T04:17:27;0.00;99.90
20366;DHT22;10341;49.894;8.822;2023-01-29T04:22:56;-0.10;99.90
20366;DHT22;10341;49.894;8.822;2023-01-29T04:28:28;-0.10;99.90
20366;DHT22;10341;49.894;8.822;2023-01-29T04:34:21;-0.10;99.90
20366;DHT22;10341;49.894;8.822;2023-01-29T04:51:31;-0.40;99.90
20366;DHT22;10341;49.894;8.822;2023-01-29T05:02:25;-0.40;99.90
20366;DHT22;10341;49.894;8.822;2023-01-29T05:07:47;-0.40;99.90
20366;DHT22;10341;49.894;8.822;2023-01-29T05:13:09;-0.40;99.90
20366;DHT22;10341;49.894;8.822;2023-01-29T05:18:30;-0.40;99.90
20366;DHT22;10341;49.894;8.822;2023-01-29T05:24:08;-0.40;99.90
20366;DHT22;10341;49.894;8.822;2023-01-29T05:29:28;-0.40;99.90
20366;DHT22;10341;49.894;8.822;2023-01-29T05:34:48;-0.40;99.90
20366;DHT22;10341;49.894;8.822;2023-01-29T05:40:08;-0.30;99.90
20366;DHT22;10341;49.894;8.822;2023-01-29T05:45:27;-0.20;99.90
20366;DHT22;10341;49.894;8.822;2023-01-29T05:50:47;-0.20;99.90
20366;DHT22;10341;49.894;8.822;2023-01-29T05:56:06;-0.30;99.90
20366;DHT22;10341;49.894;8.822;2023-01-29T06:01:26;-0.30;99.90
20366;DHT22;10341;49.894;8.822;2023-01-29T06:06:45;-0.40;99.90
20366;DHT22;10341;49.894;8.822;2023-01-29T06:12:05;-0.40;99.90
20366;DHT22;10341;49.894;8.822;2023-01-29T06:17:26;-0.40;99.90
20366;DHT22;10341;49.894;8.822;2023-01-29T06:22:46;-0.50;99.90
20366;DHT22;10341;49.894;8.822;2023-01-29T06:28:05;-0.50;99.90
20366;DHT22;10341;49.894;8.822;2023-01-29T06:33:25;-0.60;99.90
20366;DHT22;10341;49.894;8.822;2023-01-29T06:38:44;-0.70;99.90
20366;DHT22;10341;49.894;8.822;2023-01-29T06:44:05;-0.70;99.90
20366;DHT22;10341;49.894;8.822;2023-01-29T06:49:24;-0.70;99.90
20366;DHT22;10341;49.894;8.822;2023-01-29T06:54:44;-0.80;99.90
20366;DHT22;10341;49.894;8.822;2023-01-29T07:00:04;-0.80;99.90
20366;DHT22;10341;49.894;8.822;2023-01-29T07:05:24;-0.80;99.90
20366;DHT22;10341;49.894;8.822;2023-01-29T07:10:43;-0.80;99.90
20366;DHT22;10341;49.894;8.822;2023-01-29T07:16:04;-0.80;99.90
20366;DHT22;10341;49.894;8.822;2023-01-29T07:21:23;-0.80;99.90
20366;DHT22;10341;49.894;8.822;2023-01-29T07:26:43;-0.70;99.90
20366;DHT22;10341;49.894;8.822;2023-01-29T07:32:03;-0.70;99.90
20366;DHT22;10341;49.894;8.822;2023-01-29T07:37:22;-0.50;99.90
20366;DHT22;10341;49.894;8.822;2023-01-29T07:48:31;-0.40;99.90
20366;DHT22;10341;49.894;8.822;2023-01-29T07:53:51;-0.40;99.90
20366;DHT22;10341;49.894;8.822;2023-01-29T07:59:10;-0.30;99.90
20366;DHT22;10341;49.894;8.822;2023-01-29T08:04:29;-0.20;99.90
20366;DHT22;10341;49.894;8.822;2023-01-29T08:09:49;0.00;99.90
20366;DHT22;10341;49.894;8.822;2023-01-29T08:15:08;0.20;99.90
20366;DHT22;10341;49.894;8.822;2023-01-29T08:20:28;0.40;99.90
20366;DHT22;10341;49.894;8.822;2023-01-29T08:25:48;0.50;99.90
20366;DHT22;10341;49.894;8.822;2023-01-29T08:31:14;0.60;99.90
20366;DHT22;10341;49.894;8.822;2023-01-29T08:36:34;0.90;99.90
20366;DHT22;10341;49.894;8.822;2023-01-29T08:41:53;1.50;99.90
20366;DHT22;10341;49.894;8.822;2023-01-29T08:47:13;1.70;99.90
20366;DHT22;10341;49.894;8.822;2023-01-29T08:52:32;2.00;99.90
20366;DHT22;10341;49.894;8.822;2023-01-29T08:57:52;2.10;99.90
20366;DHT22;10341;49.894;8.822;2023-01-29T09:03:12;2.30;99.90
20366;DHT22;10341;49.894;8.822;2023-01-29T09:08:34;2.10;99.90
20366;DHT22;10341;49.894;8.822;2023-01-29T09:14:05;1.80;99.90
20366;DHT22;10341;49.894;8.822;2023-01-29T09:19:25;1.60;99.90
20366;DHT22;10341;49.894;8.822;2023-01-29T09:24:44;1.20;99.90
20366;DHT22;10341;49.894;8.822;2023-01-29T09:30:04;1.20;99.90
20366;DHT22;10341;49.894;8.822;2023-01-29T09:35:24;1.10;99.90
20366;DHT22;10341;49.894;8.822;2023-01-29T09:41:07;1.20;99.90
20366;DHT22;10341;49.894;8.822;2023-01-29T09:46:40;1.30;99.90
20366;DHT22;10341;49.894;8.822;2023-01-29T09:52:05;1.40;99.90
20366;DHT22;10341;49.894;8.822;2023-01-29T09:57:32;1.50;99.90
20366;DHT22;10341;49.894;8.822;2023-01-29T10:14:27;1.60;99.90
20366;DHT22;10341;49.894;8.822;2023-01-29T10:25:21;1.70;99.90
20366;DHT22;10341;49.894;8.822;2023-01-29T10:30:48;1.90;99.90
20366;DHT22;10341;49.894;8.822;2023-01-29T10:36:12;2.10;99.90
20366;DHT22;10341;49.894;8.822;2023-01-29T11:04:08;3.80;99.90
20366;DHT22;10341;49.894;8.822;2023-01-29T11:09:34;4.30;99.90
20366;DHT22;10341;49.894;8.822;2023-01-29T11:15:06;4.50;99.90
20366;DHT22;10341;49.894;8.822;2023-01-29T11:20:33;6.20;99.90
20366;DHT22;10341;49.894;8.822;2023-01-29T11:25:54;6.40;99.90
20366;DHT22;10341;49.894;8.822;2023-01-29T11:31:20;6.80;99.90
20366;DHT22;10341;49.894;8.822;2023-01-29T11:36:40;6.70;99.90
20366;DHT22;10341;49.894;8.822;2023-01-29T11:42:02;5.10;99.90
20366;DHT22;10341;49.894;8.822;2023-01-29T11:47:28;4.60;99.90
20366;DHT22;10341;49.894;8.822;2023-01-29T11:52:47;4.70;99.90
20366;DHT22;10341;49.894;8.822;2023-01-29T11:58:15;5.10;99.90
20366;DHT22;10341;49.894;8.822;2023-01-29T12:03:40;6.60;99.90
20366;DHT22;10341;49.894;8.822;2023-01-29T12:09:13;7.90;99.20
20366;DHT22;10341;49.894;8.822;2023-01-29T12:14:33;6.30;99.90
20366;DHT22;10341;49.894;8.822;2023-01-29T12:19:58;5.80;99.90
20366;DHT22;10341;49.894;8.822;2023-01-29T12:25:24;6.20;99.90
20366;DHT22;10341;49.894;8.822;2023-01-29T12:36:37;6.50;99.90
20366;DHT22;10341;49.894;8.822;2023-01-29T12:42:02;5.80;99.90
20366;DHT22;10341;49.894;8.822;2023-01-29T12:47:40;5.10;99.90
20366;DHT22;10341;49.894;8.822;2023-01-29T12:58:47;4.30;99.90
20366;DHT22;10341;49.894;8.822;2023-01-29T13:04:15;4.00;99.90
20366;DHT22;10341;49.894;8.822;2023-01-29T13:09:38;4.20;99.90
20366;DHT22;10341;49.894;8.822;2023-01-29T13:15:04;4.60;99.90
20366;DHT22;10341;49.894;8.822;2023-01-29T13:20:29;4.20;99.90
20366;DHT22;10341;49.894;8.822;2023-01-29T13:25:51;4.30;99.90
20366;DHT22;10341;49.894;8.822;2023-01-29T13:31:28;4.00;99.90
20366;DHT22;10341;49.894;8.822;2023-01-29T13:36:55;3.60;99.90
20366;DHT22;10341;49.894;8.822;2023-01-29T13:42:16;3.30;99.90
20366;DHT22;10341;49.894;8.822;2023-01-29T13:47:38;3.10;99.90
20366;DHT22;10341;49.894;8.822;2023-01-29T13:53:01;2.90;99.90
20366;DHT22;10341;49.894;8.822;2023-01-29T14:03:50;3.10;99.90
20366;DHT22;10341;49.894;8.822;2023-01-29T14:20:22;2.60;99.90
20366;DHT22;10341;49.894;8.822;2023-01-29T14:25:43;2.40;99.90
20366;DHT22;10341;49.894;8.822;2023-01-29T14:31:04;2.30;99.90
20366;DHT22;10341;49.894;8.822;2023-01-29T14:36:25;2.30;99.90
20366;DHT22;10341;49.894;8.822;2023-01-29T14:41:45;2.20;99.90
20366;DHT22;10341;49.894;8.822;2023-01-29T14:47:04;2.20;99.90
20366;DHT22;10341;49.894;8.822;2023-01-29T14:52:37;2.00;99.90
20366;DHT22;10341;49.894;8.822;2023-01-29T14:57:58;2.00;99.90
20366;DHT22;10341;49.894;8.822;2023-01-29T15:03:26;1.90;99.90
20366;DHT22;10341;49.894;8.822;2023-01-29T15:14:35;1.70;99.90
20366;DHT22;10341;49.894;8.822;2023-01-29T15:19:55;1.80;99.90
20366;DHT22;10341;49.894;8.822;2023-01-29T15:25:16;1.70;99.90
20366;DHT22;10341;49.894;8.822;2023-01-29T15:30:38;1.60;99.90
20366;DHT22;10341;49.894;8.822;2023-01-29T15:36:02;1.50;99.90
20366;DHT22;10341;49.894;8.822;2023-01-29T15:41:22;1.40;99.90
20366;DHT22;10341;49.894;8.822;2023-01-29T15:46:47;1.30;99.90
20366;DHT22;10341;49.894;8.822;2023-01-29T15:52:21;1.10;99.90
20366;DHT22;10341;49.894;8.822;2023-01-29T15:57:42;1.00;99.90
20366;DHT22;10341;49.894;8.822;2023-01-29T16:03:12;0.80;99.90
20366;DHT22;10341;49.894;8.822;2023-01-29T16:08:33;0.80;99.90
20366;DHT22;10341;49.894;8.822;2023-01-29T16:13:53;0.60;99.90
20366;DHT22;10341;49.894;8.822;2023-01-29T16:24:39;0.40;99.90
20366;DHT22;10341;49.894;8.822;2023-01-29T16:29:59;0.30;99.90
20366;DHT22;10341;49.894;8.822;2023-01-29T16:35:20;0.10;99.90
20366;DHT22;10341;49.894;8.822;2023-01-29T16:46:46;-0.20;99.90
20366;DHT22;10341;49.894;8.822;2023-01-29T16:57:39;-0.60;99.90
20366;DHT22;10341;49.894;8.822;2023-01-29T17:03:03;-0.80;99.90
20366;DHT22;10341;49.894;8.822;2023-01-29T17:08:26;-1.00;99.90
20366;DHT22;10341;49.894;8.822;2023-01-29T17:13:48;-1.10;99.90
20366;DHT22;10341;49.894;8.822;2023-01-29T17:19:16;-1.20;99.90
20366;DHT22;10341;49.894;8.822;2023-01-29T17:24:38;-1.40;99.90
20366;DHT22;10341;49.894;8.822;2023-01-29T17:29:57;-1.50;99.90
20366;DHT22;10341;49.894;8.822;2023-01-29T17:35:17;-1.50;99.90
20366;DHT22;10341;49.894;8.822;2023-01-29T17:40:47;-1.60;99.90
20366;DHT22;10341;49.894;8.822;2023-01-29T17:46:12;-1.70;99.90
20366;DHT22;10341;49.894;8.822;2023-01-29T17:51:31;-1.70;99.90
20366;DHT22;10341;49.894;8.822;2023-01-29T17:56:51;-1.80;99.90
20366;DHT22;10341;49.894;8.822;2023-01-29T18:02:11;-1.90;99.90
20366;DHT22;10341;49.894;8.822;2023-01-29T18:07:31;-2.00;99.90
20366;DHT22;10341;49.894;8.822;2023-01-29T18:12:50;-2.10;99.90
20366;DHT22;10341;49.894;8.822;2023-01-29T18:18:17;-2.00;99.90
20366;DHT22;10341;49.894;8.822;2023-01-29T18:23:36;-2.10;99.90
20366;DHT22;10341;49.894;8.822;2023-01-29T18:28:56;-2.20;99.90
20366;DHT22;10341;49.894;8.822;2023-01-29T18:34:16;-2.30;99.90
20366;DHT22;10341;49.894;8.822;2023-01-29T18:39:35;-2.50;99.90
20366;DHT22;10341;49.894;8.822;2023-01-29T18:44:55;-2.60;99.90
20366;DHT22;10341;49.894;8.822;2023-01-29T18:50:14;-2.70;99.90
20366;DHT22;10341;49.894;8.822;2023-01-29T18:55:34;-2.70;99.90
20366;DHT22;10341;49.894;8.822;2023-01-29T19:00:53;-2.60;99.90
20366;DHT22;10341;49.894;8.822;2023-01-29T19:06:13;-2.80;99.90
20366;DHT22;10341;49.894;8.822;2023-01-29T19:11:32;-2.70;99.90
20366;DHT22;10341;49.894;8.822;2023-01-29T19:16:52;-2.70;99.90
20366;DHT22;10341;49.894;8.822;2023-01-29T19:22:11;-2.60;99.90
20366;DHT22;10341;49.894;8.822;2023-01-29T19:27:31;-2.30;99.90
20366;DHT22;10341;49.894;8.822;2023-01-29T19:32:50;-2.00;99.90
20366;DHT22;10341;49.894;8.822;2023-01-29T19:38:11;-1.60;99.90
20366;DHT22;10341;49.894;8.822;2023-01-29T19:43:33;-1.50;99.90
20366;DHT22;10341;49.894;8.822;2023-01-29T19:48:53;-1.30;99.90
20366;DHT22;10341;49.894;8.822;2023-01-29T19:54:14;-1.10;99.90
20366;DHT22;10341;49.894;8.822;2023-01-29T19:59:34;-0.80;99.90
20366;DHT22;10341;49.894;8.822;2023-01-29T20:04:54;-0.80;99.90
20366;DHT22;10341;49.894;8.822;2023-01-29T20:10:13;-0.50;99.90
20366;DHT22;10341;49.894;8.822;2023-01-29T20:15:35;-0.40;99.90
20366;DHT22;10341;49.894;8.822;2023-01-29T20:20:54;-0.50;99.90
20366;DHT22;10341;49.894;8.822;2023-01-29T20:26:15;-0.50;99.90
20366;DHT22;10341;49.894;8.822;2023-01-29T20:31:34;-0.50;99.90
20366;DHT22;10341;49.894;8.822;2023-01-29T20:36:54;-0.40;99.90
20366;DHT22;10341;49.894;8.822;2023-01-29T20:42:14;-0.50;99.90
20366;DHT22;10341;49.894;8.822;2023-01-29T20:47:34;-0.50;99.90
20366;DHT22;10341;49.894;8.822;2023-01-29T20:52:53;-0.60;99.90
20366;DHT22;10341;49.894;8.822;2023-01-29T20:58:12;-0.80;99.90
20366;DHT22;10341;49.894;8.822;2023-01-29T21:03:32;-0.70;99.90
20366;DHT22;10341;49.894;8.822;2023-01-29T21:08:51;-0.70;99.90
20366;DHT22;10341;49.894;8.822;2023-01-29T21:14:10;-0.80;99.90
20366;DHT22;10341;49.894;8.822;2023-01-29T21:19:31;-0.80;99.90
20366;DHT22;10341;49.894;8.822;2023-01-29T21:24:50;-0.70;99.90
20366;DHT22;10341;49.894;8.822;2023-01-29T21:30:10;-0.70;99.90
20366;DHT22;10341;49.894;8.822;2023-01-29T21:35:29;-0.70;99.90
20366;DHT22;10341;49.894;8.822;2023-01-29T21:40:49;-0.50;99.90
20366;DHT22;10341;49.894;8.822;2023-01-29T21:46:08;-0.40;99.90
20366;DHT22;10341;49.894;8.822;2023-01-29T21:51:30;-0.30;99.90
20366;DHT22;10341;49.894;8.822;2023-01-29T21:56:49;0.00;99.90
20366;DHT22;10341;49.894;8.822;2023-01-29T22:02:12;0.20;99.90
20366;DHT22;10341;49.894;8.822;2023-01-29T22:07:33;0.30;99.90
20366;DHT22;10341;49.894;8.822;2023-01-29T22:12:52;0.40;99.90
20366;DHT22;10341;49.894;8.822;2023-01-29T22:18:11;0.40;99.90
20366;DHT22;10341;49.894;8.822;2023-01-29T22:23:31;0.50;99.90
20366;DHT22;10341;49.894;8.822;2023-01-29T22:28:51;0.50;99.90
20366;DHT22;10341;49.894;8.822;2023-01-29T22:34:11;0.50;99.90
20366;DHT22;10341;49.894;8.822;2023-01-29T22:39:31;0.60;99.90
20366;DHT22;10341;49.894;8.822;2023-01-29T22:44:51;0.60;99.90
20366;DHT22;10341;49.894;8.822;2023-01-29T22:50:11;0.70;99.90
20366;DHT22;10341;49.894;8.822;2023-01-29T22:55:30;0.70;99.90
20366;DHT22;10341;49.894;8.822;2023-01-29T23:00:49;0.80;99.90
20366;DHT22;10341;49.894;8.822;2023-01-29T23:06:09;0.80;99.90
20366;DHT22;10341;49.894;8.822;2023-01-29T23:11:28;0.80;99.90
20366;DHT22;10341;49.894;8.822;2023-01-29T23:16:48;0.80;99.90
20366;DHT22;10341;49.894;8.822;2023-01-29T23:22:07;0.90;99.90
20366;DHT22;10341;49.894;8.822;2023-01-29T23:27:27;1.00;99.90
20366;DHT22;10341;49.894;8.822;2023-01-29T23:32:47;1.00;99.90
20366;DHT22;10341;49.894;8.822;2023-01-29T23:38:06;1.10;99.90
20366;DHT22;10341;49.894;8.822;2023-01-29T23:43:27;1.20;99.90
20366;DHT22;10341;49.894;8.822;2023-01-29T23:48:46;1.30;99.90
20366;DHT22;10341;49.894;8.822;2023-01-29T23:54:06;1.30;99.90
20366;DHT22;10341;49.894;8.822;2023-01-29T23:59:26;1.40;99.90
